Time;durP1;ratioP1;P1;durP2;ratioP2;P2;SDS_P1;SDS_P2;PMS_P1;PMS_P2;Temp;Humidity;BMP_temperature;BMP_pressure;BME280_temperature;BME280_humidity;BME280_pressure;Samples;Min_cycle;Max_cycle;Signal;HPM_P1;HPM_P2
2021/06/09 00:00:15;;;;;;;8.00;4.43;;;;;;;16.21;77.95;100157.70;126311;1099;104216;-78
2021/06/09 00:03:05;;;;;;;6.17;4.10;;;;;;;16.17;78.58;100156.77;126259;1099;104150;-78
2021/06/09 00:05:36;;;;;;;9.23;4.83;;;;;;;16.16;78.53;100155.02;126283;1099;104149;-78
2021/06/09 00:08:07;;;;;;;10.13;4.53;;;;;;;16.13;78.55;100158.52;126290;1099;104156;-78
2021/06/09 00:10:38;;;;;;;7.83;4.83;;;;;;;16.09;78.67;100161.13;125288;1099;104139;-77
2021/06/09 00:13:08;;;;;;;7.83;4.57;;;;;;;16.06;78.46;100155.81;125178;1099;104203;-79
2021/06/09 00:15:39;;;;;;;8.07;4.90;;;;;;;16.05;78.16;100154.94;126295;1099;104173;-77
2021/06/09 00:18:09;;;;;;;8.43;4.90;;;;;;;16.03;78.62;100151.38;125389;1099;104274;-78
2021/06/09 00:20:40;;;;;;;5.67;4.40;;;;;;;16.01;78.87;100152.25;126331;1099;104156;-78
2021/06/09 00:23:11;;;;;;;8.30;4.60;;;;;;;15.97;78.25;100146.94;126218;1099;104147;-78
2021/06/09 00:25:47;;;;;;;7.70;4.87;;;;;;;15.97;78.13;100146.94;126282;1099;104221;-77
2021/06/09 00:28:17;;;;;;;9.73;4.63;;;;;;;15.94;78.86;100144.27;126294;1099;104152;-78
2021/06/09 00:30:48;;;;;;;9.90;4.57;;;;;;;15.92;78.38;100145.98;126324;1099;104146;-77
2021/06/09 00:33:18;;;;;;;9.10;4.80;;;;;;;15.90;78.76;100150.39;126228;1099;104325;-78
2021/06/09 00:35:49;;;;;;;8.20;4.40;;;;;;;15.88;78.91;100145.95;126276;1099;104244;-77
2021/06/09 00:38:19;;;;;;;9.85;4.50;;;;;;;15.85;78.65;100145.92;125161;1099;104341;-78
2021/06/09 00:40:49;;;;;;;7.17;4.43;;;;;;;15.83;78.31;100152.97;126263;1099;104207;-78
2021/06/09 00:43:21;;;;;;;9.93;4.70;;;;;;;15.79;78.89;100138.84;125334;1099;104252;-77
2021/06/09 00:45:56;;;;;;;7.23;4.30;;;;;;;15.76;79.03;100144.95;126337;1099;104251;-77
2021/06/09 00:48:29;;;;;;;7.87;4.60;;;;;;;15.74;78.32;100143.19;126269;1099;104248;-77
2021/06/09 00:51:02;;;;;;;9.77;4.90;;;;;;;15.70;78.37;100142.25;126297;1099;104140;-78
2021/06/09 00:53:35;;;;;;;8.27;4.53;;;;;;;15.68;78.36;100136.06;126255;1099;104262;-77
2021/06/09 00:56:09;;;;;;;6.70;4.30;;;;;;;15.66;78.39;100135.18;126245;1099;104156;-78
2021/06/09 00:58:38;;;;;;;;;;;;;;;15.64;78.74;100142.19;126332;1099;104245;-78
2021/06/09 01:01:10;;;;;;;7.83;5.20;;;;;;;15.62;78.52;100143.95;125221;1099;104298;-76
2021/06/09 01:03:42;;;;;;;8.00;4.53;;;;;;;15.60;78.46;100143.93;126232;1099;104143;-77
2021/06/09 01:06:12;;;;;;;9.33;4.80;;;;;;;15.60;79.16;100143.05;126300;1098;104233;-77
2021/06/09 01:08:43;;;;;;;6.60;4.67;;;;;;;15.58;78.67;100143.04;126290;1099;104149;-77
2021/06/09 01:11:16;;;;;;;8.93;4.80;;;;;;;15.58;79.54;100136.84;126297;1099;104144;-78
2021/06/09 01:13:47;;;;;;;7.03;4.57;;;;;;;15.56;78.63;100139.47;126274;1099;104223;-78
2021/06/09 01:16:19;;;;;;;7.47;4.67;;;;;;;15.56;78.91;100138.59;126247;1099;108189;-77
2021/06/09 01:18:52;;;;;;;8.57;4.80;;;;;;;15.54;79.06;100135.94;126295;1099;104249;-78
2021/06/09 01:21:26;;;;;;;10.10;5.00;;;;;;;15.54;78.79;100138.58;126261;1099;104248;-77
2021/06/09 01:23:58;;;;;;;9.40;5.37;;;;;;;15.52;78.91;100137.69;126299;1099;104638;-78
2021/06/09 01:26:30;;;;;;;5.93;4.43;;;;;;;15.49;79.54;100132.37;126269;1099;104242;-77
2021/06/09 01:29:02;;;;;;;7.00;4.33;;;;;;;15.46;79.39;100130.58;126252;1099;104185;-78
2021/06/09 01:31:33;;;;;;;7.27;4.67;;;;;;;15.44;78.85;100131.41;126288;1099;104175;-78
2021/06/09 01:34:06;;;;;;;6.50;4.80;;;;;;;15.40;79.34;100133.16;126269;1099;104162;-77
2021/06/09 01:36:39;;;;;;;9.10;4.97;;;;;;;15.39;79.71;100128.73;126276;1099;106933;-78
2021/06/09 01:39:13;;;;;;;7.70;4.80;;;;;;;15.36;79.26;100128.70;126301;1099;104234;-78
2021/06/09 01:41:48;;;;;;;10.23;4.80;;;;;;;15.35;79.39;100131.33;126270;1099;104306;-77
2021/06/09 01:44:19;;;;;;;9.67;5.50;;;;;;;15.34;79.72;100135.73;126270;1099;104198;-78
2021/06/09 01:46:49;;;;;;;11.77;5.03;;;;;;;15.31;79.82;100135.70;126112;1099;110910;-78
2021/06/09 01:49:19;;;;;;;13.63;5.43;;;;;;;15.31;80.30;100138.34;126274;1099;104149;-77
2021/06/09 01:51:50;;;;;;;7.47;5.20;;;;;;;15.31;79.42;100140.11;126290;1099;104249;-78
2021/06/09 01:54:22;;;;;;;10.70;6.13;;;;;;;15.29;79.17;100145.38;126289;1099;104169;-78
2021/06/09 01:56:54;;;;;;;10.45;6.45;;;;;;;15.31;79.70;100142.76;126210;1099;104221;-78
2021/06/09 01:59:24;;;;;;;12.33;5.87;;;;;;;15.29;79.53;100140.09;125297;1099;104248;-77
2021/06/09 02:01:55;;;;;;;10.73;6.70;;;;;;;15.28;79.89;100138.31;126301;1098;104217;-78
2021/06/09 02:04:25;;;;;;;10.13;6.27;;;;;;;15.27;79.94;100137.44;125390;1099;104178;-77
2021/06/09 02:06:56;;;;;;;11.67;6.07;;;;;;;15.27;80.27;100140.08;125967;1099;104248;-78
2021/06/09 02:09:26;;;;;;;11.13;6.47;;;;;;;15.27;80.12;100149.77;126267;1099;104139;-78
2021/06/09 02:11:56;;;;;;;10.33;5.90;;;;;;;15.26;79.33;100153.28;126294;1098;104143;-77
2021/06/09 02:14:27;;;;;;;8.60;5.20;;;;;;;15.25;80.06;100149.76;126308;1098;104233;-77
2021/06/09 02:16:58;;;;;;;12.43;6.87;;;;;;;15.24;79.52;100142.69;126258;1099;104140;-77
2021/06/09 02:19:30;;;;;;;12.47;7.63;;;;;;;15.26;80.42;100140.06;125300;1099;104213;-78
2021/06/09 02:22:00;;;;;;;14.07;8.40;;;;;;;15.28;80.09;100154.17;125328;1099;104232;-77
2021/06/09 02:24:32;;;;;;;17.75;8.55;;;;;;;15.29;80.43;100150.67;125379;1099;104142;-78
2021/06/09 02:27:02;;;;;;;16.40;9.17;;;;;;;15.32;80.05;100149.80;126266;1099;104197;-78
2021/06/09 02:29:33;;;;;;;18.63;10.60;;;;;;;15.37;79.68;100151.63;126277;1099;104332;-78
2021/06/09 02:32:03;;;;;;;16.03;9.60;;;;;;;15.41;80.60;100153.45;126272;1099;104101;-78
2021/06/09 02:34:37;;;;;;;21.07;11.07;;;;;;;15.44;80.63;100160.50;126270;1099;104140;-78
2021/06/09 02:37:09;;;;;;;19.07;10.07;;;;;;;15.45;80.21;100149.06;126285;1099;104158;-77
2021/06/09 02:39:39;;;;;;;19.73;10.53;;;;;;;15.44;80.45;100156.13;126292;1099;104586;-77
2021/06/09 02:42:16;;;;;;;16.83;9.30;;;;;;;15.43;80.55;100153.46;125326;1099;104262;-78
2021/06/09 02:44:47;;;;;;;16.60;8.90;;;;;;;15.43;80.02;100158.75;125336;1099;104302;-77
2021/06/09 02:47:18;;;;;;;18.20;9.90;;;;;;;15.43;80.39;100162.27;125820;1099;104194;-78
2021/06/09 02:49:49;;;;;;;19.20;9.23;;;;;;;15.43;80.19;100159.63;126313;1099;104143;-78
2021/06/09 02:52:27;;;;;;;17.13;9.40;;;;;;;15.45;80.66;100162.28;126316;1099;104172;-77
2021/06/09 02:55:05;;;;;;;21.80;10.23;;;;;;;15.47;80.55;100165.82;126315;1099;104175;-78
2021/06/09 02:57:40;;;;;;;18.07;9.63;;;;;;;15.50;79.74;100159.69;126196;1099;104153;-77
2021/06/09 03:00:17;;;;;;;18.23;10.90;;;;;;;15.54;80.33;100154.45;125334;1099;104158;-77
2021/06/09 03:02:57;;;;;;;19.90;10.43;;;;;;;15.58;80.12;100155.36;126293;1099;104156;-77
2021/06/09 03:05:31;;;;;;;16.73;9.90;;;;;;;15.60;80.63;100161.56;126272;1099;104225;-78
2021/06/09 03:08:10;;;;;;;17.30;10.45;;;;;;;15.62;80.12;100159.81;125917;1099;104344;-77
2021/06/09 03:10:50;;;;;;;15.83;9.27;;;;;;;15.63;80.61;100156.31;126247;1098;104434;-77
2021/06/09 03:16:30;;;;;;;19.70;10.27;;;;;;;15.71;79.97;100165.19;126265;1099;104264;-77
2021/06/09 03:19:06;;;;;;;19.07;9.80;;;;;;;15.76;80.62;100163.47;126328;1099;104608;-78
2021/06/09 03:21:43;;;;;;;16.30;9.70;;;;;;;15.77;80.62;100161.77;126298;1099;104325;-77
2021/06/09 03:24:20;;;;;;;19.13;10.20;;;;;;;15.81;80.10;100164.42;126292;1098;104245;-78
2021/06/09 03:26:53;;;;;;;15.93;9.77;;;;;;;15.85;80.13;100167.09;126223;1099;104277;-78
2021/06/09 03:29:34;;;;;;;19.00;9.90;;;;;;;15.88;80.09;100170.67;126332;1098;104134;-77
2021/06/09 03:32:08;;;;;;;19.77;10.10;;;;;;;15.93;80.60;100163.66;126326;1099;104236;-78
2021/06/09 03:34:47;;;;;;;16.87;9.53;;;;;;;15.99;79.85;100168.12;126335;1099;104258;-78
2021/06/09 03:37:20;;;;;;;15.83;9.47;;;;;;;16.05;80.36;100170.81;126084;1098;104300;-77
2021/06/09 03:39:56;;;;;;;;;;;;;;;16.10;80.43;100166.44;126327;1098;104222;-78
2021/06/09 03:42:32;;;;;;;19.03;10.97;;;;;;;16.14;80.16;100175.28;125396;1099;104226;-78
2021/06/09 03:45:04;;;;;;;20.97;11.27;;;;;;;16.17;80.56;100168.27;126293;1099;104204;-77
2021/06/09 03:47:35;;;;;;;18.77;10.17;;;;;;;16.22;80.35;100173.59;126224;1099;104146;-78
2021/06/09 03:50:16;;;;;;;16.33;9.37;;;;;;;16.27;80.71;100168.34;126307;1099;104489;-79
2021/06/09 03:52:50;;;;;;;19.80;10.37;;;;;;;16.33;80.65;100177.20;126292;1099;104261;-78
2021/06/09 03:55:24;;;;;;;17.77;11.70;;;;;;;16.39;80.31;100178.11;126296;1099;105765;-78
2021/06/09 03:57:58;;;;;;;20.50;11.53;;;;;;;16.43;80.50;100175.49;126248;1099;104245;-77
2021/06/09 04:00:29;;;;;;;18.10;10.40;;;;;;;16.50;80.11;100179.97;126293;1099;104165;-78
2021/06/09 04:03:01;;;;;;;19.17;11.23;;;;;;;16.55;79.85;100177.34;126274;1099;104178;-78
2021/06/09 04:05:35;;;;;;;15.90;9.27;;;;;;;16.61;80.66;100176.48;126331;1099;104217;-79
2021/06/09 04:08:09;;;;;;;15.80;9.80;;;;;;;16.65;79.99;100173.85;126223;1099;104182;-78
2021/06/09 04:10:41;;;;;;;19.10;9.33;;;;;;;16.69;79.84;100180.08;126130;1099;104143;-79
2021/06/09 04:13:12;;;;;;;17.47;10.13;;;;;;;16.71;80.18;100173.89;126117;1099;104281;-77
2021/06/09 04:15:44;;;;;;;17.00;9.10;;;;;;;16.79;79.99;100178.36;126208;1099;104144;-78
2021/06/09 04:18:16;;;;;;;20.13;10.00;;;;;;;16.82;80.39;100178.38;126208;1099;105503;-79
2021/06/09 04:20:49;;;;;;;20.07;10.33;;;;;;;16.88;79.92;100171.36;126256;1099;104146;-78
2021/06/09 04:23:19;;;;;;;17.13;9.60;;;;;;;16.94;79.74;100175.81;125320;1099;104258;-78
2021/06/09 04:25:50;;;;;;;18.30;9.73;;;;;;;16.95;80.39;100177.56;126225;1099;104140;-79
2021/06/09 04:28:22;;;;;;;23.90;9.67;;;;;;;16.98;79.84;100176.70;126176;1099;104210;-78
2021/06/09 04:30:53;;;;;;;16.63;10.43;;;;;;;17.01;80.29;100168.77;126269;1099;104180;-78
2021/06/09 04:33:30;;;;;;;16.03;8.03;;;;;;;17.03;79.73;100174.95;126295;1099;104137;-79
2021/06/09 04:36:00;;;;;;;16.13;8.77;;;;;;;17.06;80.11;100169.66;126287;1099;104141;-78
2021/06/09 04:38:32;;;;;;;17.27;8.80;;;;;;;17.09;80.12;100168.80;126232;1099;104142;-78
2021/06/09 04:41:02;;;;;;;17.40;9.37;;;;;;;17.14;80.08;100174.99;126230;1099;104140;-78
2021/06/09 04:43:33;;;;;;;18.93;10.97;;;;;;;17.22;80.09;100167.97;125314;1099;104176;-78
2021/06/09 04:46:03;;;;;;;21.83;10.80;;;;;;;17.29;79.91;100167.09;125271;1099;104131;-78
2021/06/09 04:48:34;;;;;;;17.43;9.63;;;;;;;17.37;80.48;100175.07;126217;1099;104206;-78
2021/06/09 04:51:04;;;;;;;19.53;10.83;;;;;;;17.42;79.66;100163.60;126153;1099;104207;-78
2021/06/09 04:53:35;;;;;;;19.90;11.90;;;;;;;17.47;79.76;100162.70;126060;1099;104232;-78
2021/06/09 04:56:05;;;;;;;20.43;11.33;;;;;;;17.54;79.75;100173.33;126213;1099;104169;-78
2021/06/09 04:58:35;;;;;;;18.70;10.17;;;;;;;17.60;79.79;100164.52;126167;1099;104255;-78
2021/06/09 05:01:06;;;;;;;21.93;11.27;;;;;;;17.70;80.13;100178.67;125350;1099;104714;-79
2021/06/09 05:03:38;;;;;;;19.57;11.33;;;;;;;17.78;79.78;100167.19;126152;1099;104197;-77
2021/06/09 05:06:08;;;;;;;21.53;10.87;;;;;;;17.84;79.81;100176.94;126204;1099;104176;-77
2021/06/09 05:08:38;;;;;;;18.47;10.70;;;;;;;17.92;79.72;100164.58;126049;1099;104140;-77
2021/06/09 05:11:16;;;;;;;20.87;11.20;;;;;;;17.98;79.68;100166.33;125884;1099;104204;-76
2021/06/09 05:13:50;;;;;;;21.87;10.83;;;;;;;18.05;79.75;100162.80;126192;1099;104146;-78
2021/06/09 05:16:23;;;;;;;20.17;11.07;;;;;;;18.12;79.79;100172.55;126262;1099;104136;-77
2021/06/09 05:18:57;;;;;;;21.45;11.15;;;;;;;18.18;79.64;100163.67;126208;1099;104287;-77
2021/06/09 05:21:34;;;;;;;18.63;9.23;;;;;;;18.24;79.81;100171.63;126158;1099;104140;-78
2021/06/09 05:24:06;;;;;;;19.33;9.40;;;;;;;18.32;79.79;100171.63;125300;1099;104194;-79
2021/06/09 05:26:41;;;;;;;20.30;9.13;;;;;;;18.39;79.70;100169.88;126188;1099;104624;-78
2021/06/09 05:29:16;;;;;;;17.67;8.13;;;;;;;18.49;79.21;100168.95;126164;1099;104137;-77
2021/06/09 05:31:49;;;;;;;18.45;8.25;;;;;;;18.54;79.71;100172.47;126145;1099;106747;-78
2021/06/09 05:34:23;;;;;;;11.63;6.83;;;;;;;18.62;79.37;100170.70;126125;1099;104250;-79
2021/06/09 05:36:59;;;;;;;14.20;7.00;;;;;;;18.68;79.07;100178.66;126005;1099;104182;-79
2021/06/09 05:39:30;;;;;;;11.93;6.50;;;;;;;18.76;79.50;100172.42;126006;1098;104159;-78
2021/06/09 05:42:00;;;;;;;15.73;6.20;;;;;;;18.84;79.63;100174.20;125156;1099;119993;-77
2021/06/09 05:44:34;;;;;;;11.90;6.25;;;;;;;18.91;78.99;100167.08;125166;1099;104271;-77
2021/06/09 05:47:07;;;;;;;17.23;6.77;;;;;;;19.02;79.03;100181.21;125219;1099;104318;-78
2021/06/09 05:49:37;;;;;;;14.70;6.40;;;;;;;19.10;79.17;100172.33;125241;1099;104321;-78
2021/06/09 05:52:09;;;;;;;11.00;5.80;;;;;;;19.14;79.08;100172.31;125977;1099;104245;-79
2021/06/09 05:54:46;;;;;;;11.77;5.90;;;;;;;19.21;79.42;100175.81;125993;1099;104310;-78
2021/06/09 05:57:18;;;;;;;11.97;6.10;;;;;;;19.27;79.28;100174.91;125976;1099;104192;-76
2021/06/09 05:59:50;;;;;;;9.33;5.53;;;;;;;19.35;79.11;100171.33;126134;1099;104165;-77
2021/06/09 06:02:22;;;;;;;11.23;5.97;;;;;;;19.42;79.21;100165.98;125204;1099;104307;-77
2021/06/09 06:04:56;;;;;;;13.20;5.90;;;;;;;19.48;78.84;100171.27;126057;1099;104146;-78
2021/06/09 06:07:31;;;;;;;10.63;5.30;;;;;;;19.54;79.02;100171.19;125131;1102;104293;-77
2021/06/09 06:10:05;;;;;;;13.70;5.80;;;;;;;19.58;78.33;100173.83;125832;1099;104169;-77
2021/06/09 06:12:39;;;;;;;16.33;5.90;;;;;;;19.65;79.09;100176.45;125973;1099;104302;-77
2021/06/09 06:15:15;;;;;;;15.20;5.50;;;;;;;19.73;78.74;100169.31;126189;1099;104238;-78
2021/06/09 06:17:49;;;;;;;13.10;5.93;;;;;;;19.83;78.64;100170.16;125988;1098;104214;-78
2021/06/09 06:20:23;;;;;;;14.73;5.37;;;;;;;19.90;79.01;100170.09;125202;1102;105178;-78
2021/06/09 06:22:55;;;;;;;11.93;5.87;;;;;;;19.99;78.77;100169.16;126082;1099;107472;-76
2021/06/09 06:25:28;;;;;;;14.10;6.43;;;;;;;20.07;78.96;100169.97;125226;1098;104696;-79
2021/06/09 06:28:04;;;;;;;15.83;6.00;;;;;;;20.16;78.12;100165.44;125240;1099;104134;-77
2021/06/09 06:30:45;;;;;;;12.57;6.00;;;;;;;20.28;78.05;100170.66;125224;1099;104194;-77
2021/06/09 06:33:38;;;;;;;12.97;6.20;;;;;;;20.36;78.80;100168.80;126009;1099;118064;-77
2021/06/09 06:36:29;;;;;;;12.63;5.33;;;;;;;20.42;78.54;100171.41;124746;1102;104366;-76
2021/06/09 06:39:02;;;;;;;15.33;6.10;;;;;;;20.52;78.43;100181.97;124813;1103;104274;-78
2021/06/09 06:41:34;;;;;;;11.40;5.80;;;;;;;20.58;78.54;100179.24;124755;1102;104283;-76
2021/06/09 06:44:08;;;;;;;12.07;5.90;;;;;;;20.70;77.89;100175.61;124806;1105;104288;-76
2021/06/09 06:46:38;;;;;;;9.90;5.40;;;;;;;20.81;78.13;100179.90;124752;1105;104582;-76
2021/06/09 06:49:11;;;;;;;13.93;5.80;;;;;;;20.91;77.91;100175.36;124695;1105;104306;-77
2021/06/09 06:51:43;;;;;;;14.13;5.73;;;;;;;21.03;78.25;100178.77;124755;1105;104344;-76
2021/06/09 06:54:16;;;;;;;17.43;6.03;;;;;;;21.16;78.19;100172.36;124776;1103;104277;-77
2021/06/09 06:56:50;;;;;;;12.20;5.33;;;;;;;21.31;77.33;100179.30;124829;1102;104179;-76
2021/06/09 06:59:22;;;;;;;12.03;5.90;;;;;;;21.44;77.27;100167.56;124863;1103;104310;-77
2021/06/09 07:01:54;;;;;;;10.87;5.70;;;;;;;21.59;77.55;100170.94;124783;1102;104524;-77
2021/06/09 07:04:27;;;;;;;11.57;5.63;;;;;;;21.70;77.95;100161.84;124851;1104;104248;-78
2021/06/09 07:07:16;;;;;;;13.30;5.90;;;;;;;21.84;76.87;100168.77;124822;1106;104322;-77
2021/06/09 07:10:06;;;;;;;14.70;6.40;;;;;;;21.98;77.27;100158.73;125093;1102;104176;-78
2021/06/09 07:12:45;;;;;;;14.73;6.40;;;;;;;22.16;77.22;100160.22;125136;1102;104240;-77
2021/06/09 07:15:21;;;;;;;9.80;5.50;;;;;;;22.34;77.01;100158.16;125911;1099;104258;-77
2021/06/09 07:18:00;;;;;;;15.77;5.80;;;;;;;22.53;77.20;100164.03;125030;1102;104255;-76
2021/06/09 07:20:48;;;;;;;12.03;6.40;;;;;;;22.71;77.08;100162.81;125097;1102;104619;-76
2021/06/09 07:23:20;;;;;;;16.97;6.17;;;;;;;22.89;76.74;100156.19;125047;1102;104056;-78
2021/06/09 07:25:52;;;;;;;9.63;5.65;;;;;;;23.13;76.17;100169.09;125028;1102;104169;-77
2021/06/09 07:28:26;;;;;;;13.20;5.70;;;;;;;23.31;76.25;100151.77;125078;1102;104301;-78
2021/06/09 07:31:04;;;;;;;10.40;5.60;;;;;;;23.48;76.23;100148.70;125065;1102;104246;-77
2021/06/09 07:33:35;;;;;;;15.77;6.03;;;;;;;23.67;76.08;100158.98;124985;1102;104315;-78
2021/06/09 07:36:11;;;;;;;9.43;5.00;;;;;;;23.88;75.60;100151.38;124979;1102;104063;-77
2021/06/09 07:38:57;;;;;;;11.00;5.17;;;;;;;24.09;75.39;100155.30;125020;1102;104278;-78
2021/06/09 07:41:33;;;;;;;7.73;5.17;;;;;;;24.31;75.18;100160.97;124784;1102;104237;-77
2021/06/09 07:44:12;;;;;;;10.40;5.20;;;;;;;24.56;74.87;100166.58;125071;1103;104169;-78
2021/06/09 07:46:55;;;;;;;12.43;5.33;;;;;;;24.69;74.75;100162.66;125082;1102;104242;-76
2021/06/09 07:49:33;;;;;;;11.70;5.43;;;;;;;24.79;74.18;100167.77;125074;1102;104223;-77
2021/06/09 07:52:06;;;;;;;11.37;5.33;;;;;;;24.95;73.72;100171.78;125154;1102;104165;-77
2021/06/09 07:54:39;;;;;;;9.00;5.30;;;;;;;25.09;73.40;100158.83;125018;1100;104278;-77
2021/06/09 07:57:10;;;;;;;16.57;6.27;;;;;;;25.24;73.53;100156.59;125106;1101;104598;-78
2021/06/09 07:59:47;;;;;;;10.40;5.30;;;;;;;25.32;73.03;100159.95;125100;1102;104313;-78
2021/06/09 08:02:23;;;;;;;10.43;5.60;;;;;;;25.52;72.75;100164.70;125039;1102;104168;-76
2021/06/09 08:05:00;;;;;;;13.37;5.33;;;;;;;25.69;72.56;100156.11;125050;1102;119776;-77
2021/06/09 08:07:38;;;;;;;11.47;5.43;;;;;;;25.88;72.13;100152.83;125048;1102;104165;-78
2021/06/09 08:13:31;;;;;;;9.30;5.10;;;;;;;26.03;70.91;100160.41;125502;1099;104172;-78
2021/06/09 08:16:10;;;;;;;12.80;5.63;;;;;;;26.21;70.77;100153.54;125961;1099;104216;-78
2021/06/09 08:18:47;;;;;;;10.13;4.90;;;;;;;26.33;69.89;100154.91;126020;1099;104149;-79
2021/06/09 08:21:20;;;;;;;7.80;5.20;;;;;;;26.52;70.09;100156.02;126039;1099;104399;-78
2021/06/09 08:23:54;;;;;;;9.63;4.87;;;;;;;26.62;69.49;100153.88;125348;1099;104147;-78
2021/06/09 08:26:27;;;;;;;8.80;4.73;;;;;;;26.77;68.59;100154.27;125199;1099;104175;-79
2021/06/09 08:29:00;;;;;;;7.97;5.10;;;;;;;26.89;68.32;100156.51;126053;1099;104264;-78
2021/06/09 08:31:34;;;;;;;9.27;5.60;;;;;;;26.94;67.62;100150.95;126129;1099;104586;-79
2021/06/09 08:34:10;;;;;;;9.80;4.50;;;;;;;27.04;68.25;100152.37;126038;1099;104194;-79
2021/06/09 08:36:44;;;;;;;13.93;4.60;;;;;;;27.21;66.77;100154.42;125159;1102;104168;-80
2021/06/09 08:39:17;;;;;;;10.57;5.10;;;;;;;27.37;66.12;100152.03;125100;1102;104223;-79
2021/06/09 08:41:54;;;;;;;9.60;4.77;;;;;;;27.41;65.85;100154.54;125085;1102;104159;-77
2021/06/09 08:44:26;;;;;;;11.07;4.90;;;;;;;27.45;65.86;100155.28;125110;1102;104249;-77
2021/06/09 08:47:03;;;;;;;8.35;4.87;;;;;;;27.55;64.49;100159.38;125116;1102;104316;-78
2021/06/09 08:49:36;;;;;;;8.00;4.87;;;;;;;27.56;64.76;100153.03;125130;1102;104159;-77
2021/06/09 08:52:11;;;;;;;12.25;4.95;;;;;;;27.57;63.47;100151.23;125180;1102;104182;-77
2021/06/09 08:54:46;;;;;;;7.40;4.73;;;;;;;27.59;63.64;100158.30;125122;1102;104380;-78
2021/06/09 08:57:18;;;;;;;11.13;4.70;;;;;;;27.64;63.37;100151.86;125153;1102;104220;-78
2021/06/09 08:59:52;;;;;;;6.73;4.53;;;;;;;27.68;62.23;100153.50;125131;1102;104332;-77
2021/06/09 09:02:24;;;;;;;7.67;4.50;;;;;;;27.59;62.23;100154.73;125162;1101;104313;-77
2021/06/09 09:04:57;;;;;;;9.13;4.17;;;;;;;27.62;61.46;100152.78;125138;1102;104264;-77
2021/06/09 09:07:30;;;;;;;9.97;4.17;;;;;;;27.61;61.84;100153.75;125231;1102;104592;-77
2021/06/09 09:09:59;;;;;;;;;;;;;;;27.60;59.76;100160.06;126095;1099;104198;-78
2021/06/09 09:12:36;;;;;;;8.95;4.40;;;;;;;27.61;60.26;100161.83;126037;1099;104249;-77
2021/06/09 09:15:09;;;;;;;10.27;4.40;;;;;;;27.57;59.32;100170.97;125638;1098;104179;-79
2021/06/09 09:17:53;;;;;;;7.78;4.50;;;;;;;27.49;59.45;100154.23;125109;1099;104290;-77
2021/06/09 09:20:27;;;;;;;9.00;4.97;;;;;;;27.41;58.34;100161.73;125825;1099;104181;-76
2021/06/09 09:23:00;;;;;;;8.30;4.93;;;;;;;27.40;59.03;100158.16;125925;1099;104146;-77
2021/06/09 09:25:32;;;;;;;;;;;;;;;27.47;57.36;100157.92;125992;1099;104203;-77
2021/06/09 09:28:06;;;;;;;9.03;4.60;;;;;;;27.58;57.81;100161.05;125975;1099;104239;-78
2021/06/09 09:30:46;;;;;;;7.77;4.80;;;;;;;27.49;57.61;100147.95;126003;1099;104586;-79
2021/06/09 09:33:22;;;;;;;5.07;4.20;;;;;;;27.42;57.16;100150.02;126034;1099;104223;-78
2021/06/09 09:35:53;;;;;;;9.60;4.33;;;;;;;27.37;56.76;100154.72;125900;1099;104239;-78
2021/06/09 09:38:43;;;;;;;8.83;4.80;;;;;;;27.28;56.81;100152.36;125913;1099;104136;-78
2021/06/09 09:41:34;;;;;;;9.17;4.60;;;;;;;27.03;56.95;100148.78;125027;1102;104245;-77
2021/06/09 09:44:09;;;;;;;8.70;4.57;;;;;;;27.02;56.48;100146.14;125728;1099;104188;-77
2021/06/09 09:46:53;;;;;;;7.43;4.50;;;;;;;27.11;56.23;100140.41;125676;1099;104194;-78
2021/06/09 09:49:30;;;;;;;8.23;4.50;;;;;;;27.16;55.05;100137.54;125976;1099;104194;-78
2021/06/09 09:52:04;;;;;;;7.10;4.60;;;;;;;27.24;56.25;100147.09;126007;1099;104194;-77
2021/06/09 09:54:37;;;;;;;8.60;4.67;;;;;;;27.26;55.63;100142.51;125888;1096;104274;-77
2021/06/09 09:57:11;;;;;;;9.60;4.37;;;;;;;27.16;55.16;100143.83;125144;1099;104239;-77
2021/06/09 09:59:54;;;;;;;9.80;4.77;;;;;;;27.17;54.91;100134.78;125136;1099;104197;-77
2021/06/09 10:02:25;;;;;;;7.03;4.00;;;;;;;27.13;54.57;100143.05;125073;1099;104191;-77
2021/06/09 10:05:10;;;;;;;7.55;4.67;;;;;;;27.13;54.64;100126.88;124997;1099;104722;-76
2021/06/09 10:08:06;;;;;;;6.00;4.23;;;;;;;27.16;53.87;100130.36;124862;1102;104226;-76
2021/06/09 10:10:37;;;;;;;;;;;;;;;27.16;53.14;100127.67;124933;1102;104245;-77
2021/06/09 10:13:15;;;;;;;13.50;4.40;;;;;;;27.18;53.92;100125.78;124919;1099;104392;-77
2021/06/09 10:15:53;;;;;;;6.50;4.20;;;;;;;27.14;53.17;100107.11;124954;1100;105716;-78
2021/06/09 10:18:32;;;;;;;7.33;3.90;;;;;;;27.15;52.25;100108.88;124877;1102;104625;-75
2021/06/09 10:21:26;;;;;;;10.87;4.13;;;;;;;27.22;52.35;100107.67;124979;1102;104245;-74
2021/06/09 10:24:05;;;;;;;5.80;4.30;;;;;;;27.27;51.29;100111.09;124983;1099;104421;-76
2021/06/09 10:26:40;;;;;;;10.17;4.70;;;;;;;27.24;52.45;100095.05;125088;1102;104159;-76
2021/06/09 10:29:48;;;;;;;9.60;4.70;;;;;;;27.16;52.00;100105.22;125003;1102;104192;-74
2021/06/09 10:32:22;;;;;;;8.70;4.60;;;;;;;26.98;51.74;100118.47;125025;1102;104482;-75
2021/06/09 10:35:03;;;;;;;6.77;4.47;;;;;;;27.04;51.87;100103.91;125061;1101;104131;-76
2021/06/09 10:37:34;;;;;;;8.50;4.20;;;;;;;27.20;51.53;100109.56;124982;1100;104146;-76
2021/06/09 10:40:11;;;;;;;10.00;4.20;;;;;;;27.36;51.67;100097.28;125146;1099;104220;-76
2021/06/09 10:42:41;;;;;;;;;;;;;;;27.48;50.59;100095.89;125301;1099;104219;-75
2021/06/09 10:45:15;;;;;;;7.17;4.47;;;;;;;27.49;50.27;100092.27;125810;1099;104297;-75
2021/06/09 10:47:48;;;;;;;8.90;4.60;;;;;;;27.38;50.03;100099.92;125959;1099;105380;-76
2021/06/09 10:50:28;;;;;;;5.90;4.20;;;;;;;27.33;49.96;100096.52;125819;1099;104216;-76
2021/06/09 10:53:09;;;;;;;7.90;4.43;;;;;;;27.35;49.07;100103.60;125927;1099;102032;-76
2021/06/09 10:55:40;;;;;;;7.10;4.53;;;;;;;27.40;49.27;100096.20;125927;1099;104116;-76
2021/06/09 10:58:13;;;;;;;9.35;4.55;;;;;;;27.49;49.49;100085.98;125739;1099;104272;-76
2021/06/09 11:00:45;;;;;;;8.03;4.20;;;;;;;27.54;49.28;100081.30;125193;1098;104306;-76
2021/06/09 11:03:17;;;;;;;6.70;4.00;;;;;;;27.60;48.40;100086.44;125924;1099;103423;-76
2021/06/09 11:05:50;;;;;;;6.27;4.00;;;;;;;27.46;47.93;100084.31;125160;1099;104248;-77
2021/06/09 11:08:22;;;;;;;5.05;4.08;;;;;;;27.51;47.55;100073.34;125976;1099;104178;-76
2021/06/09 11:10:54;;;;;;;7.75;4.05;;;;;;;27.54;48.04;100074.08;125962;1099;104146;-75
2021/06/09 11:13:31;;;;;;;10.43;4.33;;;;;;;27.65;48.43;100070.94;126008;1099;104255;-76
2021/06/09 11:16:13;;;;;;;6.97;4.40;;;;;;;27.73;48.27;100060.70;126077;1099;104585;-76
2021/06/09 11:18:50;;;;;;;6.90;4.27;;;;;;;27.75;45.83;100071.42;126138;1098;104236;-77
2021/06/09 11:21:36;;;;;;;7.60;4.43;;;;;;;27.72;47.18;100071.55;126072;1099;104618;-77
2021/06/09 11:24:12;;;;;;;8.90;4.50;;;;;;;27.71;46.52;100067.99;126005;1099;104139;-76
2021/06/09 11:26:47;;;;;;;7.43;4.60;;;;;;;27.75;45.21;100072.32;126011;1099;104140;-77
2021/06/09 11:29:32;;;;;;;7.72;4.40;;;;;;;27.74;46.21;100065.16;126077;1099;104166;-76
2021/06/09 11:32:20;;;;;;;6.60;4.00;;;;;;;27.73;45.11;100068.79;125364;1099;104277;-76
2021/06/09 11:35:03;;;;;;;9.98;4.20;;;;;;;27.75;45.33;100063.34;125386;1099;104325;-77
2021/06/09 11:37:41;;;;;;;7.60;4.17;;;;;;;27.66;45.36;100056.54;125933;1099;104176;-78
2021/06/09 11:40:19;;;;;;;6.80;4.20;;;;;;;27.60;44.50;100056.80;125864;1099;104261;-76
2021/06/09 11:43:19;;;;;;;8.60;4.57;;;;;;;27.56;45.13;100050.64;125977;1099;104309;-77